Time;durP1;ratioP1;P1;durP2;ratioP2;P2;SDS_P1;SDS_P2;PMS_P1;PMS_P2;Temp;Humidity;BMP_temperature;BMP_pressure;BME280_temperature;BME280_humidity;BME280_pressure;Samples;Min_cycle;Max_cycle;Signal;HPM_P1;HPM_P2
2022/04/08 00:01:38;;;;;;;;;;;;;;;;;;5015456;28;28397;-87
2022/04/08 00:04:03;;;;;;;;;;;;;;;;;;5015691;28;28445;-87
2022/04/08 00:06:28;;;;;;;;;;;;;;;;;;5015168;28;28453;-87
2022/04/08 00:08:54;;;;;;;;;;;;;;;;;;5018047;28;28455;-86
2022/04/08 00:11:19;;;;;;;;;;;;;;;;;;5023521;28;28605;-86
2022/04/08 00:13:44;;;;;;;;;;;;;;;;;;5015604;28;28743;-86
2022/04/08 00:16:09;;;;;;;;;;;;;;;;;;5015486;28;28483;-86
2022/04/08 00:18:34;;;;;;;;;;;;;;;;;;5014946;28;28430;-86
2022/04/08 00:21:01;;;;;;;;;;;;;;;;;;5015314;28;28471;-87
2022/04/08 00:23:26;;;;;;;;;;;;;;;;;;5015186;28;28427;-86
2022/04/08 00:25:51;;;;;;;;;;;;;;;;;;5013801;28;28487;-87
2022/04/08 00:28:16;;;;;;;;;;;;;;;;;;5015014;28;28504;-86
2022/04/08 00:30:41;;;;;;;;;;;;;;;;;;5015087;28;28383;-87
2022/04/08 00:33:06;;;;;;;;;;;;;;;;;;5015118;28;28400;-86
2022/04/08 00:35:31;;;;;;;;;;;;;;;;;;5018174;28;29469;-87
2022/04/08 00:37:57;;;;;;;;;;;;;;;;;;5017583;28;28404;-87
2022/04/08 00:40:22;;;;;;;;;;;;;;;;;;5033267;28;28411;-87
2022/04/08 00:42:47;;;;;;;;;;;;;;;;;;5033337;28;28419;-87
2022/04/08 00:45:12;;;;;;;;;;;;;;;;;;5035111;28;28489;-87
2022/04/08 00:47:41;;;;;;;;;;;;;;;;;;5035537;28;28316;-86
2022/04/08 00:50:06;;;;;;;;;;;;;;;;;;5034667;28;28553;-87
2022/04/08 00:52:31;;;;;;;;;;;;;;;;;;5035606;28;28473;-87
2022/04/08 00:54:56;;;;;;;;;;;;;;;;;;5035285;28;28389;-87
2022/04/08 00:57:21;;;;;;;;;;;;;;;;;;5035327;28;28415;-87
2022/04/08 00:59:46;;;;;;;;;;;;;;;;;;5035475;28;28399;-87
2022/04/08 01:02:11;;;;;;;;;;;;;;;;;;5034365;28;28332;-88
2022/04/08 01:04:36;;;;;;;;;;;;;;;;;;5035403;28;28453;-87
2022/04/08 01:07:01;;;;;;;;;;;;;;;;;;5035091;28;28386;-87
2022/04/08 01:09:27;;;;;;;;;;;;;;;;;;5035233;28;28401;-87
2022/04/08 01:11:52;;;;;;;;;;;;;;;;;;5035048;28;28343;-87
2022/04/08 01:14:17;;;;;;;;;;;;;;;;;;5034641;28;28344;-87
2022/04/08 01:16:42;;;;;;;;;;;;;;;;;;5035060;28;28418;-88
2022/04/08 01:19:07;;;;;;;;;;;;;;;;;;5035095;28;28395;-87
2022/04/08 01:21:32;;;;;;;;;;;;;;;;;;5035391;28;28470;-87
2022/04/08 01:23:58;;;;;;;;;;;;;;;;;;5033831;28;28354;-87
2022/04/08 01:26:23;;;;;;;;;;;;;;;;;;5035154;28;28458;-88
2022/04/08 01:28:48;;;;;;;;;;;;;;;;;;5034223;28;28412;-88
2022/04/08 01:31:13;;;;;;;;;;;;;;;;;;5034577;28;28407;-88
2022/04/08 01:33:38;;;;;;;;;;;;;;;;;;5034638;28;29321;-87
2022/04/08 01:36:03;;;;;;;;;;;;;;;;;;5034875;28;28386;-87
2022/04/08 01:38:28;;;;;;;;;;;;;;;;;;5038613;28;28391;-88
2022/04/08 01:40:53;;;;;;;;;;;;;;;;;;5038410;28;28562;-87
2022/04/08 01:43:18;;;;;;;;;;;;;;;;;;5038005;28;28436;-87
2022/04/08 01:45:43;;;;;;;;;;;;;;;;;;5038514;28;28422;-87
2022/04/08 01:48:09;;;;;;;;;;;;;;;;;;5038458;28;28480;-87
2022/04/08 01:50:35;;;;;;;;;;;;;;;;;;5038682;28;28412;-87
2022/04/08 01:53:00;;;;;;;;;;;;;;;;;;5038162;28;28425;-88
2022/04/08 01:55:25;;;;;;;;;;;;;;;;;;5038338;28;28425;-87
2022/04/08 01:57:51;;;;;;;;;;;;;;;;;;5038019;28;28518;-87
2022/04/08 02:00:16;;;;;;;;;;;;;;;;;;5038476;28;28408;-87
2022/04/08 02:02:41;;;;;;;;;;;;;;;;;;5037781;28;29144;-87
2022/04/08 02:05:06;;;;;;;;;;;;;;;;;;5037971;28;28319;-88
2022/04/08 02:07:31;;;;;;;;;;;;;;;;;;5038209;28;28535;-87
2022/04/08 02:09:56;;;;;;;;;;;;;;;;;;5038200;28;27814;-86
2022/04/08 02:12:22;;;;;;;;;;;;;;;;;;5038193;28;28266;-87
2022/04/08 02:14:47;;;;;;;;;;;;;;;;;;5037955;28;28270;-87
2022/04/08 02:17:12;;;;;;;;;;;;;;;;;;5037648;28;28371;-87
2022/04/08 02:19:37;;;;;;;;;;;;;;;;;;5037927;28;28325;-87
2022/04/08 02:22:03;;;;;;;;;;;;;;;;;;5037891;28;28347;-87
2022/04/08 02:24:28;;;;;;;;;;;;;;;;;;5037620;28;28081;-86
2022/04/08 02:26:53;;;;;;;;;;;;;;;;;;5037426;28;28361;-86
2022/04/08 02:29:18;;;;;;;;;;;;;;;;;;5037887;28;28378;-86
2022/04/08 02:31:43;;;;;;;;;;;;;;;;;;5037996;28;28332;-90
2022/04/08 02:34:08;;;;;;;;;;;;;;;;;;5032459;28;28411;-86
2022/04/08 02:36:33;;;;;;;;;;;;;;;;;;5017877;28;28292;-85
2022/04/08 02:38:59;;;;;;;;;;;;;;;;;;5018070;28;28355;-86
2022/04/08 02:41:24;;;;;;;;;;;;;;;;;;5032380;28;28921;-86
2022/04/08 02:43:49;;;;;;;;;;;;;;;;;;5037625;28;28435;-86
2022/04/08 02:46:15;;;;;;;;;;;;;;;;;;5037563;28;28300;-87
2022/04/08 02:48:40;;;;;;;;;;;;;;;;;;5036438;28;28726;-86
2022/04/08 02:51:05;;;;;;;;;;;;;;;;;;5037501;28;28358;-86
2022/04/08 02:53:30;;;;;;;;;;;;;;;;;;5037270;28;28379;-86
2022/04/08 02:55:55;;;;;;;;;;;;;;;;;;5037065;28;28408;-87
2022/04/08 02:58:20;;;;;;;;;;;;;;;;;;5037098;28;28547;-86
2022/04/08 03:00:45;;;;;;;;;;;;;;;;;;5037099;28;29258;-87
2022/04/08 03:03:10;;;;;;;;;;;;;;;;;;5037326;28;28582;-86
2022/04/08 03:05:35;;;;;;;;;;;;;;;;;;5037122;28;28411;-87
2022/04/08 03:08:01;;;;;;;;;;;;;;;;;;5037464;28;28402;-86
2022/04/08 03:10:26;;;;;;;;;;;;;;;;;;5036852;28;28369;-86
2022/04/08 03:12:51;;;;;;;;;;;;;;;;;;5036697;28;28320;-86
2022/04/08 03:15:16;;;;;;;;;;;;;;;;;;5037085;28;28352;-86
2022/04/08 03:17:41;;;;;;;;;;;;;;;;;;5036691;28;28296;-86
2022/04/08 03:20:06;;;;;;;;;;;;;;;;;;5036946;28;28280;-86
2022/04/08 03:22:31;;;;;;;;;;;;;;;;;;5036528;28;28552;-86
2022/04/08 03:24:56;;;;;;;;;;;;;;;;;;5037013;28;28417;-86
2022/04/08 03:27:21;;;;;;;;;;;;;;;;;;5037025;28;28321;-86
2022/04/08 03:29:48;;;;;;;;;;;;;;;;;;5036521;28;28351;-86
2022/04/08 03:32:13;;;;;;;;;;;;;;;;;;5036998;28;28415;-87
2022/04/08 03:34:38;;;;;;;;;;;;;;;;;;5037028;28;28451;-86
2022/04/08 03:37:03;;;;;;;;;;;;;;;;;;5036584;28;27914;-86
2022/04/08 03:39:28;;;;;;;;;;;;;;;;;;5036323;28;28447;-86
2022/04/08 03:41:54;;;;;;;;;;;;;;;;;;5036411;28;28411;-86
2022/04/08 03:44:19;;;;;;;;;;;;;;;;;;5036839;28;27931;-86
2022/04/08 03:46:46;;;;;;;;;;;;;;;;;;5036736;28;28379;-86
2022/04/08 03:49:14;;;;;;;;;;;;;;;;;;5036537;28;28451;-86
2022/04/08 03:51:39;;;;;;;;;;;;;;;;;;5035854;28;28479;-86
2022/04/08 03:54:04;;;;;;;;;;;;;;;;;;5036565;28;28559;-86
2022/04/08 03:56:29;;;;;;;;;;;;;;;;;;5036329;28;28482;-86
2022/04/08 03:58:54;;;;;;;;;;;;;;;;;;5036015;28;28395;-86
2022/04/08 04:01:19;;;;;;;;;;;;;;;;;;5035615;28;28528;-86
2022/04/08 04:03:44;;;;;;;;;;;;;;;;;;5036257;28;28428;-86
2022/04/08 04:06:09;;;;;;;;;;;;;;;;;;5036418;28;28422;-86
2022/04/08 04:08:35;;;;;;;;;;;;;;;;;;5036202;28;28325;-86
2022/04/08 04:11:00;;;;;;;;;;;;;;;;;;5035977;28;28391;-86
2022/04/08 04:13:25;;;;;;;;;;;;;;;;;;5035958;28;28352;-86
2022/04/08 04:15:50;;;;;;;;;;;;;;;;;;5036088;28;28450;-86
2022/04/08 04:18:15;;;;;;;;;;;;;;;;;;5036013;28;28317;-86
2022/04/08 04:20:40;;;;;;;;;;;;;;;;;;5036191;28;28237;-86
2022/04/08 04:23:05;;;;;;;;;;;;;;;;;;5036180;28;28265;-85
2022/04/08 04:25:30;;;;;;;;;;;;;;;;;;5036123;28;28385;-85
2022/04/08 04:27:55;;;;;;;;;;;;;;;;;;5035480;28;29249;-86
2022/04/08 04:30:21;;;;;;;;;;;;;;;;;;5034352;28;29686;-85
2022/04/08 04:32:46;;;;;;;;;;;;;;;;;;5035919;28;28280;-86
2022/04/08 04:35:11;;;;;;;;;;;;;;;;;;5036055;28;28379;-86
2022/04/08 04:37:36;;;;;;;;;;;;;;;;;;5035894;28;28728;-85
2022/04/08 04:40:01;;;;;;;;;;;;;;;;;;5035070;28;28304;-86
2022/04/08 04:42:27;;;;;;;;;;;;;;;;;;5035693;28;28324;-85
2022/04/08 04:44:53;;;;;;;;;;;;;;;;;;5035864;28;28383;-85
2022/04/08 04:47:18;;;;;;;;;;;;;;;;;;5035513;28;28546;-85
2022/04/08 04:49:43;;;;;;;;;;;;;;;;;;5035603;28;28414;-86
2022/04/08 04:52:08;;;;;;;;;;;;;;;;;;5035681;28;28401;-86
2022/04/08 04:54:33;;;;;;;;;;;;;;;;;;5035357;28;28387;-85
2022/04/08 04:56:58;;;;;;;;;;;;;;;;;;5035494;28;28326;-85
2022/04/08 04:59:23;;;;;;;;;;;;;;;;;;5035245;28;28332;-86
2022/04/08 05:01:48;;;;;;;;;;;;;;;;;;5034989;28;28518;-86
2022/04/08 05:04:13;;;;;;;;;;;;;;;;;;5035635;28;28364;-85
2022/04/08 05:06:38;;;;;;;;;;;;;;;;;;5035161;28;28525;-85
2022/04/08 05:09:04;;;;;;;;;;;;;;;;;;5035112;28;28391;-85
2022/04/08 05:11:29;;;;;;;;;;;;;;;;;;5034281;28;28414;-86
2022/04/08 05:13:54;;;;;;;;;;;;;;;;;;5035603;28;28379;-86
2022/04/08 05:16:19;;;;;;;;;;;;;;;;;;5035021;28;28482;-85
2022/04/08 05:18:45;;;;;;;;;;;;;;;;;;5035271;28;28380;-85
2022/04/08 05:21:10;;;;;;;;;;;;;;;;;;5034391;28;28454;-85
2022/04/08 05:23:35;;;;;;;;;;;;;;;;;;5035356;28;28448;-85
2022/04/08 05:26:00;;;;;;;;;;;;;;;;;;5033209;28;29762;-86
2022/04/08 05:28:26;;;;;;;;;;;;;;;;;;5034912;28;28570;-85
2022/04/08 05:30:57;;;;;;;;;;;;;;;;;;5033945;28;28309;-85
2022/04/08 05:33:22;;;;;;;;;;;;;;;;;;5035056;28;28344;-86
2022/04/08 05:35:47;;;;;;;;;;;;;;;;;;5034872;28;28526;-86
2022/04/08 05:38:12;;;;;;;;;;;;;;;;;;5034966;28;28406;-85
2022/04/08 05:40:37;;;;;;;;;;;;;;;;;;5034729;28;28447;-85
2022/04/08 05:43:02;;;;;;;;;;;;;;;;;;5035233;28;28438;-86
2022/04/08 05:45:27;;;;;;;;;;;;;;;;;;5034277;28;28324;-86
2022/04/08 05:47:55;;;;;;;;;;;;;;;;;;5034738;28;28482;-84
2022/04/08 05:50:21;;;;;;;;;;;;;;;;;;5034816;28;28380;-86
2022/04/08 05:52:47;;;;;;;;;;;;;;;;;;5032090;28;28444;-86
2022/04/08 05:55:12;;;;;;;;;;;;;;;;;;5019486;28;28764;-85
2022/04/08 05:57:40;;;;;;;;;;;;;;;;;;5021027;28;28234;-86
2022/04/08 06:00:05;;;;;;;;;;;;;;;;;;5027724;28;28202;-85
2022/04/08 06:02:30;;;;;;;;;;;;;;;;;;5034906;28;28217;-85
2022/04/08 06:04:55;;;;;;;;;;;;;;;;;;5034663;28;28222;-86
2022/04/08 06:07:20;;;;;;;;;;;;;;;;;;5034727;28;28298;-86
2022/04/08 06:09:45;;;;;;;;;;;;;;;;;;5034381;28;28922;-86
2022/04/08 06:12:10;;;;;;;;;;;;;;;;;;5034117;28;27823;-86
2022/04/08 06:14:35;;;;;;;;;;;;;;;;;;5034416;28;28324;-84
2022/04/08 06:17:01;;;;;;;;;;;;;;;;;;5033980;28;29091;-84
2022/04/08 06:19:26;;;;;;;;;;;;;;;;;;5033304;28;28330;-85
2022/04/08 06:21:51;;;;;;;;;;;;;;;;;;5033552;28;28498;-85
2022/04/08 06:24:16;;;;;;;;;;;;;;;;;;5037813;28;28479;-84
2022/04/08 06:26:41;;;;;;;;;;;;;;;;;;5037771;28;28395;-85
2022/04/08 06:29:06;;;;;;;;;;;;;;;;;;5037063;28;28632;-85
2022/04/08 06:31:31;;;;;;;;;;;;;;;;;;5038129;28;28589;-85
2022/04/08 06:33:56;;;;;;;;;;;;;;;;;;5037648;28;28417;-85
2022/04/08 06:36:21;;;;;;;;;;;;;;;;;;5037772;28;28336;-85
2022/04/08 06:38:48;;;;;;;;;;;;;;;;;;5037632;28;28240;-83
2022/04/08 06:41:13;;;;;;;;;;;;;;;;;;5037012;28;28407;-87
2022/04/08 06:43:38;;;;;;;;;;;;;;;;;;5037718;28;28432;-89
2022/04/08 06:46:03;;;;;;;;;;;;;;;;;;5036444;28;28670;-85
2022/04/08 06:48:29;;;;;;;;;;;;;;;;;;5037535;28;28384;-83
2022/04/08 06:50:54;;;;;;;;;;;;;;;;;;5036963;28;28477;-83
2022/04/08 06:53:19;;;;;;;;;;;;;;;;;;5037331;28;28513;-91
2022/04/08 06:55:44;;;;;;;;;;;;;;;;;;5037520;28;28390;-83
2022/04/08 06:58:09;;;;;;;;;;;;;;;;;;5036975;28;28474;-84
2022/04/08 07:00:34;;;;;;;;;;;;;;;;;;5035575;28;28353;-82
2022/04/08 07:02:59;;;;;;;;;;;;;;;;;;5036634;28;28356;-87
2022/04/08 07:05:28;;;;;;;;;;;;;;;;;;5037221;28;28399;-84
2022/04/08 07:07:54;;;;;;;;;;;;;;;;;;5037517;28;28257;-86
2022/04/08 07:10:19;;;;;;;;;;;;;;;;;;5037253;28;28249;-86
2022/04/08 07:12:44;;;;;;;;;;;;;;;;;;5036877;28;28443;-86
2022/04/08 07:15:10;;;;;;;;;;;;;;;;;;5036864;28;28237;-86
2022/04/08 07:17:35;;;;;;;;;;;;;;;;;;5036612;28;28288;-86
2022/04/08 07:20:00;;;;;;;;;;;;;;;;;;5037311;28;28428;-90
2022/04/08 07:22:25;;;;;;;;;;;;;;;;;;5035198;28;28530;-88
2022/04/08 07:24:50;;;;;;;;;;;;;;;;;;5035897;28;28814;-88
2022/04/08 07:27:15;;;;;;;;;;;;;;;;;;5035764;28;28358;-91
2022/04/08 07:29:43;;;;;;;;;;;;;;;;;;5036923;28;28308;-90
2022/04/08 07:32:08;;;;;;;;;;;;;;;;;;5028716;28;29895;-87
2022/04/08 07:34:35;;;;;;;;;;;;;;;;;;5014631;28;31436;-88
2022/04/08 07:37:00;;;;;;;;;;;;;;;;;;5022319;28;28471;-88
2022/04/08 07:39:26;;;;;;;;;;;;;;;;;;5037213;28;28381;-86
2022/04/08 07:41:51;;;;;;;;;;;;;;;;;;5035462;28;28597;-86
2022/04/08 07:44:16;;;;;;;;;;;;;;;;;;5036654;28;28423;-89
2022/04/08 07:46:41;;;;;;;;;;;;;;;;;;5034648;28;28648;-87
2022/04/08 07:49:06;;;;;;;;;;;;;;;;;;5036625;28;28383;-87
2022/04/08 07:51:31;;;;;;;;;;;;;;;;;;5036107;28;28548;-88
2022/04/08 07:53:56;;;;;;;;;;;;;;;;;;5035694;28;28356;-85
2022/04/08 07:56:21;;;;;;;;;;;;;;;;;;5037037;28;28257;-90
2022/04/08 07:58:48;;;;;;;;;;;;;;;;;;5036143;28;28338;-88
2022/04/08 08:01:13;;;;;;;;;;;;;;;;;;5036328;28;29103;-93
2022/04/08 08:03:38;;;;;;;;;;;;;;;;;;5034962;28;28419;-89
2022/04/08 08:06:03;;;;;;;;;;;;;;;;;;5035960;28;28557;-87
2022/04/08 08:08:28;;;;;;;;;;;;;;;;;;5036514;28;28341;-86
2022/04/08 08:10:55;;;;;;;;;;;;;;;;;;5034995;28;28444;-87
2022/04/08 08:13:20;;;;;;;;;;;;;;;;;;5035020;28;28482;-87
2022/04/08 08:15:45;;;;;;;;;;;;;;;;;;5034345;28;30158;-89
2022/04/08 08:18:11;;;;;;;;;;;;;;;;;;5034224;28;35400;-90
2022/04/08 08:20:37;;;;;;;;;;;;;;;;;;5029790;28;28935;-88
2022/04/08 08:23:02;;;;;;;;;;;;;;;;;;5014848;28;28546;-89
2022/04/08 08:25:27;;;;;;;;;;;;;;;;;;5016281;28;28515;-92
2022/04/08 08:27:52;;;;;;;;;;;;;;;;;;5031388;28;28458;-89
2022/04/08 08:30:17;;;;;;;;;;;;;;;;;;5030824;28;29320;-89
2022/04/08 08:32:42;;;;;;;;;;;;;;;;;;5015574;28;28488;-88
2022/04/08 08:35:07;;;;;;;;;;;;;;;;;;5016562;28;28463;-89
2022/04/08 08:37:33;;;;;;;;;;;;;;;;;;5018761;28;28561;-91
2022/04/08 08:39:58;;;;;;;;;;;;;;;;;;5016753;28;28531;-90
2022/04/08 08:42:23;;;;;;;;;;;;;;;;;;5029668;28;28483;-89
2022/04/08 08:44:48;;;;;;;;;;;;;;;;;;5033359;28;28561;-88
2022/04/08 08:47:13;;;;;;;;;;;;;;;;;;5033541;28;28533;-87
2022/04/08 08:49:38;;;;;;;;;;;;;;;;;;5034538;28;28590;-88
2022/04/08 08:52:06;;;;;;;;;;;;;;;;;;5037563;28;28423;-91
2022/04/08 08:54:32;;;;;;;;;;;;;;;;;;5029828;28;28477;-91
2022/04/08 08:56:57;;;;;;;;;;;;;;;;;;5017304;28;28401;-92
2022/04/08 08:59:23;;;;;;;;;;;;;;;;;;5014694;28;30169;-91
2022/04/08 09:01:49;;;;;;;;;;;;;;;;;;5015425;28;28317;-90
2022/04/08 09:04:14;;;;;;;;;;;;;;;;;;5029908;28;28518;-92
2022/04/08 09:06:39;;;;;;;;;;;;;;;;;;5031386;28;28469;-90
2022/04/08 09:09:05;;;;;;;;;;;;;;;;;;5042090;28;29700;-91
2022/04/08 09:11:30;;;;;;;;;;;;;;;;;;5031025;28;31372;-91
2022/04/08 09:13:55;;;;;;;;;;;;;;;;;;5015166;28;28408;-89
2022/04/08 09:16:20;;;;;;;;;;;;;;;;;;5030911;28;28671;-90
2022/04/08 09:18:47;;;;;;;;;;;;;;;;;;5015364;28;29590;-91
2022/04/08 09:21:12;;;;;;;;;;;;;;;;;;5016665;28;28511;-90
2022/04/08 09:23:37;;;;;;;;;;;;;;;;;;5035851;28;28650;-92
2022/04/08 09:26:02;;;;;;;;;;;;;;;;;;5037532;28;28439;-92
2022/04/08 09:28:27;;;;;;;;;;;;;;;;;;5036903;28;30896;-94
2022/04/08 09:30:55;;;;;;;;;;;;;;;;;;5037557;28;28064;-89
2022/04/08 09:33:21;;;;;;;;;;;;;;;;;;5034368;28;28507;-93
2022/04/08 09:35:46;;;;;;;;;;;;;;;;;;5035138;28;28467;-89
2022/04/08 09:38:11;;;;;;;;;;;;;;;;;;5033345;28;29870;-90
2022/04/08 09:40:36;;;;;;;;;;;;;;;;;;5036216;28;28758;-90
2022/04/08 09:43:02;;;;;;;;;;;;;;;;;;5036277;28;28428;-92
2022/04/08 09:45:30;;;;;;;;;;;;;;;;;;5034688;28;28637;-89
2022/04/08 09:47:55;;;;;;;;;;;;;;;;;;5034576;28;29627;-89
2022/04/08 09:50:20;;;;;;;;;;;;;;;;;;5034519;28;28504;-85
2022/04/08 09:52:45;;;;;;;;;;;;;;;;;;5033796;28;28849;-89
2022/04/08 09:55:10;;;;;;;;;;;;;;;;;;5029830;28;28357;-88
2022/04/08 09:57:36;;;;;;;;;;;;;;;;;;5030924;28;28463;-89
2022/04/08 10:00:01;;;;;;;;;;;;;;;;;;5017869;28;28475;-88
2022/04/08 10:02:26;;;;;;;;;;;;;;;;;;5031704;28;28478;-89
2022/04/08 10:04:51;;;;;;;;;;;;;;;;;;5038522;28;28517;-90
2022/04/08 10:07:16;;;;;;;;;;;;;;;;;;5036940;28;28873;-90
2022/04/08 10:09:41;;;;;;;;;;;;;;;;;;5036551;28;28554;-88
2022/04/08 10:12:06;;;;;;;;;;;;;;;;;;5037791;28;28530;-87
2022/04/08 10:14:31;;;;;;;;;;;;;;;;;;5039755;28;28469;-89
2022/04/08 10:16:57;;;;;;;;;;;;;;;;;;5036389;28;29481;-90
2022/04/08 10:19:22;;;;;;;;;;;;;;;;;;5037784;28;28586;-91
2022/04/08 10:21:47;;;;;;;;;;;;;;;;;;5037594;28;28484;-89
2022/04/08 10:24:13;;;;;;;;;;;;;;;;;;5037177;28;28531;-89
2022/04/08 10:26:38;;;;;;;;;;;;;;;;;;5036011;28;28728;-89
2022/04/08 10:29:03;;;;;;;;;;;;;;;;;;5037266;28;28353;-89
2022/04/08 10:31:29;;;;;;;;;;;;;;;;;;5036987;28;28392;-90
2022/04/08 10:33:54;;;;;;;;;;;;;;;;;;5037593;28;28407;-87
2022/04/08 10:36:19;;;;;;;;;;;;;;;;;;5037925;28;28447;-85
2022/04/08 10:38:44;;;;;;;;;;;;;;;;;;5037567;28;28459;-85
2022/04/08 10:41:10;;;;;;;;;;;;;;;;;;5037016;28;28649;-87
2022/04/08 10:43:36;;;;;;;;;;;;;;;;;;5037701;28;28398;-85
2022/04/08 10:46:01;;;;;;;;;;;;;;;;;;5037446;28;29250;-83
2022/04/08 10:48:26;;;;;;;;;;;;;;;;;;5037361;28;28344;-90
2022/04/08 10:50:51;;;;;;;;;;;;;;;;;;5037627;28;28446;-84
2022/04/08 10:53:16;;;;;;;;;;;;;;;;;;5037636;28;28335;-85
2022/04/08 10:55:41;;;;;;;;;;;;;;;;;;5037004;28;29192;-86
2022/04/08 10:58:06;;;;;;;;;;;;;;;;;;5037212;28;28376;-85
2022/04/08 11:00:31;;;;;;;;;;;;;;;;;;5037593;28;28299;-85
2022/04/08 11:02:56;;;;;;;;;;;;;;;;;;5037409;28;28293;-84
2022/04/08 11:05:22;;;;;;;;;;;;;;;;;;5037309;28;28318;-85
2022/04/08 11:07:47;;;;;;;;;;;;;;;;;;5037353;28;28373;-87
2022/04/08 11:10:12;;;;;;;;;;;;;;;;;;5035777;28;28320;-84
2022/04/08 11:12:37;;;;;;;;;;;;;;;;;;5037162;28;28569;-86
2022/04/08 11:15:03;;;;;;;;;;;;;;;;;;5037459;28;28389;-86
2022/04/08 11:17:28;;;;;;;;;;;;;;;;;;5036540;28;28562;-89
2022/04/08 11:19:53;;;;;;;;;;;;;;;;;;5036438;28;28514;-84
2022/04/08 11:22:18;;;;;;;;;;;;;;;;;;5035935;28;28571;-90
2022/04/08 11:24:43;;;;;;;;;;;;;;;;;;5037095;28;28279;-86
2022/04/08 11:27:08;;;;;;;;;;;;;;;;;;5034280;28;28781;-90
2022/04/08 11:29:34;;;;;;;;;;;;;;;;;;5033834;28;28451;-89
2022/04/08 11:31:59;;;;;;;;;;;;;;;;;;5036256;28;28396;-88
2022/04/08 11:34:27;;;;;;;;;;;;;;;;;;5034903;28;29112;-87
2022/04/08 11:36:54;;;;;;;;;;;;;;;;;;5020965;28;28523;-87
2022/04/08 11:39:19;;;;;;;;;;;;;;;;;;5032449;28;28447;-88
2022/04/08 11:41:44;;;;;;;;;;;;;;;;;;5020112;28;28404;-88
2022/04/08 11:44:12;;;;;;;;;;;;;;;;;;5016032;28;28499;-88
2022/04/08 11:46:37;;;;;;;;;;;;;;;;;;5027833;28;28495;-88
2022/04/08 11:49:02;;;;;;;;;;;;;;;;;;5035984;28;28348;-88
2022/04/08 11:51:27;;;;;;;;;;;;;;;;;;5029651;28;28484;-88
2022/04/08 11:53:55;;;;;;;;;;;;;;;;;;5035861;28;28656;-88
2022/04/08 11:56:20;;;;;;;;;;;;;;;;;;5035520;28;28727;-87
2022/04/08 11:58:45;;;;;;;;;;;;;;;;;;5020831;28;28384;-88
2022/04/08 12:01:10;;;;;;;;;;;;;;;;;;5019500;28;28503;-88
2022/04/08 12:03:36;;;;;;;;;;;;;;;;;;5035824;28;28503;-88
2022/04/08 12:06:02;;;;;;;;;;;;;;;;;;5035923;28;28537;-89
2022/04/08 12:08:27;;;;;;;;;;;;;;;;;;5035879;28;28520;-88
2022/04/08 12:10:52;;;;;;;;;;;;;;;;;;5035809;28;28474;-88
2022/04/08 12:13:17;;;;;;;;;;;;;;;;;;5032185;28;28430;-87
2022/04/08 12:15:43;;;;;;;;;;;;;;;;;;5015653;28;28482;-88
2022/04/08 12:18:08;;;;;;;;;;;;;;;;;;5015986;28;28506;-88
2022/04/08 12:20:33;;;;;;;;;;;;;;;;;;5025754;28;28482;-88
2022/04/08 12:22:59;;;;;;;;;;;;;;;;;;5035353;28;28446;-88
2022/04/08 12:25:24;;;;;;;;;;;;;;;;;;5035306;28;28566;-87
2022/04/08 12:27:49;;;;;;;;;;;;;;;;;;5035294;28;28537;-88
2022/04/08 12:30:15;;;;;;;;;;;;;;;;;;5034920;28;28537;-89
2022/04/08 12:32:42;;;;;;;;;;;;;;;;;;5034373;28;28334;-88
2022/04/08 12:35:08;;;;;;;;;;;;;;;;;;5034968;28;28067;-88
2022/04/08 12:37:34;;;;;;;;;;;;;;;;;;5034608;28;28602;-88
2022/04/08 12:39:59;;;;;;;;;;;;;;;;;;5034278;28;28419;-88
2022/04/08 12:42:24;;;;;;;;;;;;;;;;;;5034664;28;29474;-88
2022/04/08 12:44:49;;;;;;;;;;;;;;;;;;5034845;28;27807;-88
2022/04/08 12:47:14;;;;;;;;;;;;;;;;;;5035284;28;28465;-87
2022/04/08 12:49:39;;;;;;;;;;;;;;;;;;5034577;28;28384;-88
2022/04/08 12:52:04;;;;;;;;;;;;;;;;;;5034244;28;28373;-89
2022/04/08 12:54:29;;;;;;;;;;;;;;;;;;5035202;28;28395;-89
2022/04/08 12:56:54;;;;;;;;;;;;;;;;;;5033694;28;28477;-89
2022/04/08 12:59:22;;;;;;;;;;;;;;;;;;5034486;28;28379;-87
2022/04/08 13:01:47;;;;;;;;;;;;;;;;;;5035044;28;28487;-87
2022/04/08 13:04:13;;;;;;;;;;;;;;;;;;5032763;28;28459;-87
2022/04/08 13:06:38;;;;;;;;;;;;;;;;;;5034879;28;28506;-88
2022/04/08 13:09:03;;;;;;;;;;;;;;;;;;5034905;28;28485;-88
2022/04/08 13:11:28;;;;;;;;;;;;;;;;;;5034772;28;28487;-88
2022/04/08 13:13:53;;;;;;;;;;;;;;;;;;5034021;28;28399;-87
2022/04/08 13:16:18;;;;;;;;;;;;;;;;;;5034697;28;28461;-88
2022/04/08 13:18:44;;;;;;;;;;;;;;;;;;5034329;28;28502;-87
2022/04/08 13:21:09;;;;;;;;;;;;;;;;;;5034172;28;29584;-88
2022/04/08 13:23:35;;;;;;;;;;;;;;;;;;5034727;28;28454;-88
2022/04/08 13:26:00;;;;;;;;;;;;;;;;;;5034800;28;28600;-88
2022/04/08 13:28:25;;;;;;;;;;;;;;;;;;5034697;28;28461;-87
2022/04/08 13:30:50;;;;;;;;;;;;;;;;;;5034463;28;28481;-89
2022/04/08 13:33:15;;;;;;;;;;;;;;;;;;5032279;28;28556;-88
2022/04/08 13:35:40;;;;;;;;;;;;;;;;;;5034295;28;28455;-87
2022/04/08 13:38:05;;;;;;;;;;;;;;;;;;5034617;28;28382;-87
2022/04/08 13:40:31;;;;;;;;;;;;;;;;;;5034103;28;28338;-87
2022/04/08 13:42:58;;;;;;;;;;;;;;;;;;5033840;28;28348;-87
2022/04/08 13:45:23;;;;;;;;;;;;;;;;;;5034137;28;28304;-87
2022/04/08 13:47:50;;;;;;;;;;;;;;;;;;5033587;28;28469;-88
2022/04/08 13:50:15;;;;;;;;;;;;;;;;;;5034411;28;28417;-85
2022/04/08 13:52:40;;;;;;;;;;;;;;;;;;5034250;28;28367;-90
2022/04/08 13:55:05;;;;;;;;;;;;;;;;;;5034545;28;28436;-88
2022/04/08 13:57:30;;;;;;;;;;;;;;;;;;5034178;28;28278;-89
2022/04/08 13:59:56;;;;;;;;;;;;;;;;;;5032830;28;28579;-89
2022/04/08 14:02:21;;;;;;;;;;;;;;;;;;5033663;28;28444;-90
2022/04/08 14:04:46;;;;;;;;;;;;;;;;;;5034350;28;28566;-91
2022/04/08 14:07:11;;;;;;;;;;;;;;;;;;5032684;28;28574;-88
2022/04/08 14:09:37;;;;;;;;;;;;;;;;;;5028161;28;30294;-87
2022/04/08 14:12:02;;;;;;;;;;;;;;;;;;5031652;28;28506;-86
2022/04/08 14:14:27;;;;;;;;;;;;;;;;;;5034706;28;28538;-85
2022/04/08 14:16:52;;;;;;;;;;;;;;;;;;5034251;28;28394;-88
2022/04/08 14:19:17;;;;;;;;;;;;;;;;;;5033299;28;29719;-85
2022/04/08 14:21:42;;;;;;;;;;;;;;;;;;5034061;28;28325;-90
2022/04/08 14:24:07;;;;;;;;;;;;;;;;;;5032535;28;28453;-91
2022/04/08 14:26:32;;;;;;;;;;;;;;;;;;5032552;28;28651;-87
2022/04/08 14:28:57;;;;;;;;;;;;;;;;;;5027522;28;29266;-87
2022/04/08 14:31:23;;;;;;;;;;;;;;;;;;5013908;28;28596;-88
2022/04/08 14:33:48;;;;;;;;;;;;;;;;;;5012775;28;28436;-85
2022/04/08 14:36:13;;;;;;;;;;;;;;;;;;5014324;28;28361;-84
2022/04/08 14:38:38;;;;;;;;;;;;;;;;;;5013862;28;28400;-84
2022/04/08 14:41:03;;;;;;;;;;;;;;;;;;5013514;28;28580;-84
2022/04/08 14:43:29;;;;;;;;;;;;;;;;;;5019231;28;28396;-86
2022/04/08 14:45:54;;;;;;;;;;;;;;;;;;5032404;28;28475;-84
2022/04/08 14:48:19;;;;;;;;;;;;;;;;;;5031769;28;28482;-85
2022/04/08 14:50:44;;;;;;;;;;;;;;;;;;5017034;28;28498;-87
2022/04/08 14:53:09;;;;;;;;;;;;;;;;;;5029716;28;27992;-87
2022/04/08 14:55:35;;;;;;;;;;;;;;;;;;5037080;28;28498;-89
2022/04/08 14:58:00;;;;;;;;;;;;;;;;;;5035163;28;29453;-87
2022/04/08 15:00:25;;;;;;;;;;;;;;;;;;5036686;28;28491;-87
2022/04/08 15:02:52;;;;;;;;;;;;;;;;;;5036855;28;28541;-86
2022/04/08 15:05:17;;;;;;;;;;;;;;;;;;5031723;28;28417;-87
2022/04/08 15:07:42;;;;;;;;;;;;;;;;;;5036620;28;28250;-88
2022/04/08 15:10:07;;;;;;;;;;;;;;;;;;5036152;28;28920;-85
2022/04/08 15:12:32;;;;;;;;;;;;;;;;;;5036656;28;28462;-85
2022/04/08 15:15:00;;;;;;;;;;;;;;;;;;5036083;28;28408;-88
2022/04/08 15:17:25;;;;;;;;;;;;;;;;;;5036709;28;28557;-87
2022/04/08 15:19:50;;;;;;;;;;;;;;;;;;5036506;28;28510;-87
2022/04/08 15:22:15;;;;;;;;;;;;;;;;;;5036560;28;28454;-88
2022/04/08 15:24:40;;;;;;;;;;;;;;;;;;5036172;28;28466;-85
2022/04/08 15:27:05;;;;;;;;;;;;;;;;;;5036601;28;29308;-87
2022/04/08 15:29:31;;;;;;;;;;;;;;;;;;5036676;28;28330;-90
2022/04/08 15:31:56;;;;;;;;;;;;;;;;;;5035534;28;28569;-86
2022/04/08 15:34:21;;;;;;;;;;;;;;;;;;5035758;28;27900;-86
2022/04/08 15:36:46;;;;;;;;;;;;;;;;;;5035602;28;28541;-86
2022/04/08 15:39:11;;;;;;;;;;;;;;;;;;5031474;28;28686;-87
2022/04/08 15:41:41;;;;;;;;;;;;;;;;;;5016493;28;28387;-86
2022/04/08 15:44:06;;;;;;;;;;;;;;;;;;5034956;28;28681;-86
2022/04/08 15:46:31;;;;;;;;;;;;;;;;;;5050464;28;28786;-85
2022/04/08 15:48:57;;;;;;;;;;;;;;;;;;5035582;28;28432;-87
2022/04/08 15:51:22;;;;;;;;;;;;;;;;;;5035852;28;28572;-87
2022/04/08 15:53:47;;;;;;;;;;;;;;;;;;5036383;28;28259;-86
2022/04/08 15:56:12;;;;;;;;;;;;;;;;;;5034927;28;28360;-87
2022/04/08 15:58:38;;;;;;;;;;;;;;;;;;5035141;28;28697;-86
2022/04/08 16:01:03;;;;;;;;;;;;;;;;;;5034780;28;28518;-87
2022/04/08 16:03:28;;;;;;;;;;;;;;;;;;5035781;28;28472;-86
2022/04/08 16:05:55;;;;;;;;;;;;;;;;;;5035369;28;28735;-87
2022/04/08 16:08:20;;;;;;;;;;;;;;;;;;5035641;28;28502;-87
2022/04/08 16:10:45;;;;;;;;;;;;;;;;;;5035758;28;28380;-87
2022/04/08 16:13:10;;;;;;;;;;;;;;;;;;5035571;28;28427;-84
2022/04/08 16:15:36;;;;;;;;;;;;;;;;;;5033982;28;30111;-86
2022/04/08 16:18:01;;;;;;;;;;;;;;;;;;5035881;28;28315;-86
2022/04/08 16:20:26;;;;;;;;;;;;;;;;;;5035420;28;28832;-86
2022/04/08 16:22:51;;;;;;;;;;;;;;;;;;5034731;28;28558;-87
2022/04/08 16:25:16;;;;;;;;;;;;;;;;;;5034711;28;29580;-84
2022/04/08 16:27:41;;;;;;;;;;;;;;;;;;5036234;28;28655;-87
2022/04/08 16:30:06;;;;;;;;;;;;;;;;;;5035239;28;28547;-91
2022/04/08 16:32:33;;;;;;;;;;;;;;;;;;5016990;28;28541;-87